Time;durP1;ratioP1;P1;durP2;ratioP2;P2;SDS_P1;SDS_P2;PMS_P1;PMS_P2;Temp;Humidity;BMP_temperature;BMP_pressure;BME280_temperature;BME280_humidity;BME280_pressure;Samples;Min_cycle;Max_cycle;Signal;HPM_P1;HPM_P2
2023/05/05 00:01:31;;;;;;;11.60;7.85;;;;;;;16.00;68.19;100658.00;4981650;28;20060;-77
2023/05/05 00:03:58;;;;;;;11.30;7.18;;;;;;;15.90;68.42;100667.06;4990053;28;20154;-80
2023/05/05 00:06:28;;;;;;;11.68;7.28;;;;;;;15.96;68.47;100662.84;4989448;28;20047;-78
2023/05/05 00:08:54;;;;;;;8.32;7.15;;;;;;;15.97;68.42;100663.66;4976249;28;20051;-78
2023/05/05 00:11:21;;;;;;;11.10;7.43;;;;;;;16.00;68.62;100665.94;4978476;28;20055;-76
2023/05/05 00:13:48;;;;;;;11.07;7.30;;;;;;;15.95;68.53;100668.31;4978463;28;20071;-80
2023/05/05 00:16:14;;;;;;;10.15;8.02;;;;;;;15.92;68.78;100661.59;4985229;28;20129;-77
2023/05/05 00:18:42;;;;;;;9.15;7.53;;;;;;;15.99;69.12;100674.84;4990416;28;20485;-78
2023/05/05 00:21:09;;;;;;;12.32;7.93;;;;;;;15.96;69.16;100670.75;4990606;28;20129;-79
2023/05/05 00:23:36;;;;;;;9.45;7.90;;;;;;;15.87;69.19;100662.16;4990072;28;20498;-78
2023/05/05 00:26:02;;;;;;;11.82;8.00;;;;;;;15.81;69.04;100649.72;4982870;28;20093;-77
2023/05/05 00:28:30;;;;;;;11.77;8.13;;;;;;;15.86;69.29;100652.59;4972471;28;20130;-77
2023/05/05 00:30:56;;;;;;;10.27;8.32;;;;;;;15.83;68.99;100645.06;4977172;28;20087;-78
2023/05/05 00:33:23;;;;;;;11.52;9.63;;;;;;;15.78;68.90;100651.91;4990389;28;20111;-77
2023/05/05 00:35:51;;;;;;;11.85;8.60;;;;;;;15.76;69.09;100659.19;4972976;28;20451;-78
2023/05/05 00:38:17;;;;;;;11.15;8.45;;;;;;;15.68;69.38;100654.06;4989496;28;20053;-78
2023/05/05 00:40:44;;;;;;;11.68;8.60;;;;;;;15.66;69.59;100658.69;4982066;28;20462;-78
2023/05/05 00:43:11;;;;;;;11.50;8.45;;;;;;;15.64;69.99;100668.63;4990069;28;20142;-78
2023/05/05 00:45:41;;;;;;;11.95;8.75;;;;;;;15.62;69.62;100660.06;4988209;28;20127;-78
2023/05/05 00:48:08;;;;;;;11.48;9.07;;;;;;;15.54;69.60;100647.81;4990542;28;20406;-76
2023/05/05 00:50:36;;;;;;;11.75;9.98;;;;;;;15.44;70.34;100653.41;4975755;28;20042;-77
2023/05/05 00:53:06;;;;;;;11.02;9.02;;;;;;;15.43;70.39;100667.59;4982621;28;20466;-78
2023/05/05 00:55:33;;;;;;;10.70;8.82;;;;;;;15.35;70.62;100662.41;4975632;28;20104;-79
2023/05/05 00:58:01;;;;;;;15.50;10.18;;;;;;;15.30;71.30;100666.63;4983224;28;20130;-79
2023/05/05 01:00:29;;;;;;;12.55;9.13;;;;;;;15.23;71.12;100653.34;4978723;28;20058;-77
2023/05/05 01:02:56;;;;;;;13.05;8.90;;;;;;;15.14;71.52;100662.38;4983935;28;20062;-77
2023/05/05 01:05:24;;;;;;;12.38;10.00;;;;;;;15.10;71.98;100667.22;4989974;28;20084;-79
2023/05/05 01:08:13;;;;;;;12.43;9.15;;;;;;;15.09;72.03;100662.94;4990112;28;20053;-77
2023/05/05 01:10:45;;;;;;;13.98;9.02;;;;;;;15.07;72.12;100661.50;4983666;28;20532;-77
2023/05/05 01:13:25;;;;;;;12.18;9.68;;;;;;;15.06;72.01;100659.88;4973938;28;20110;-77
2023/05/05 01:16:01;;;;;;;11.15;9.98;;;;;;;15.01;72.29;100652.50;4977078;28;20066;-77
2023/05/05 01:18:33;;;;;;;14.70;9.63;;;;;;;14.93;72.43;100661.31;4989461;28;20053;-78
2023/05/05 01:21:05;;;;;;;10.27;9.18;;;;;;;14.89;72.92;100665.31;4990111;28;20137;-77
2023/05/05 01:24:00;;;;;;;19.05;9.68;;;;;;;14.82;73.09;100656.50;4974335;28;20537;-78
2023/05/05 01:26:51;;;;;;;12.55;9.48;;;;;;;14.69;73.43;100648.44;4988295;28;20059;-78
2023/05/05 01:29:47;;;;;;;14.93;10.15;;;;;;;14.73;73.51;100665.50;4989909;28;20130;-78
2023/05/05 01:32:19;;;;;;;15.23;10.32;;;;;;;14.66;73.74;100659.31;4972043;28;20417;-78
2023/05/05 01:34:56;;;;;;;12.38;10.70;;;;;;;14.64;73.82;100661.34;4970880;28;20058;-77
2023/05/05 01:37:26;;;;;;;13.35;9.93;;;;;;;14.59;74.00;100663.72;4971881;28;20138;-78
2023/05/05 01:39:57;;;;;;;14.00;10.55;;;;;;;14.58;73.93;100664.72;4990291;28;20050;-76
2023/05/05 01:42:25;;;;;;;12.98;9.73;;;;;;;14.57;73.96;100670.97;4970437;28;20552;-77
2023/05/05 01:44:53;;;;;;;11.18;9.88;;;;;;;14.51;74.41;100682.22;4971879;28;20070;-77
2023/05/05 01:47:23;;;;;;;12.80;10.77;;;;;;;14.55;74.30;100667.69;4971231;28;20462;-76
2023/05/05 01:49:51;;;;;;;15.48;10.32;;;;;;;14.55;74.37;100675.59;4971666;28;20055;-76
2023/05/05 01:52:18;;;;;;;15.52;10.38;;;;;;;14.52;74.59;100673.34;4979238;28;20054;-77
2023/05/05 01:54:46;;;;;;;11.88;8.98;;;;;;;14.64;74.34;100677.16;4990141;28;20133;-76
2023/05/05 01:57:14;;;;;;;12.55;9.23;;;;;;;14.63;74.20;100683.41;5068351;23;20135;-81
2023/05/05 01:59:41;;;;;;;15.60;8.95;;;;;;;14.59;74.78;100687.41;5066034;28;20052;-81
2023/05/05 02:02:11;;;;;;;15.60;9.32;;;;;;;14.54;75.10;100693.22;5072562;28;20117;-79
2023/05/05 02:04:42;;;;;;;13.65;8.95;;;;;;;14.52;75.31;100697.03;5078877;28;20079;-81
2023/05/05 02:07:11;;;;;;;12.13;8.88;;;;;;;14.47;75.44;100694.13;5081306;28;20423;-81
2023/05/05 02:09:39;;;;;;;12.43;9.32;;;;;;;14.46;75.83;100708.28;5080363;28;20512;-80
2023/05/05 02:12:07;;;;;;;13.10;9.07;;;;;;;14.46;75.83;100703.81;5076794;28;20135;-80
2023/05/05 02:14:34;;;;;;;13.85;9.13;;;;;;;14.40;76.18;100701.88;5075296;28;20099;-81
2023/05/05 02:17:02;;;;;;;11.43;9.38;;;;;;;14.33;76.49;100706.22;5069152;28;20103;-80
2023/05/05 02:19:31;;;;;;;11.75;9.23;;;;;;;14.27;76.61;100713.00;5080457;28;20076;-78
2023/05/05 02:22:00;;;;;;;12.32;8.98;;;;;;;14.24;76.94;100708.09;5079783;28;20454;-80
2023/05/05 02:24:26;;;;;;;11.27;9.18;;;;;;;14.24;77.50;100716.00;5072823;28;20044;-80
2023/05/05 02:26:56;;;;;;;12.30;8.98;;;;;;;14.23;77.94;100711.72;5071920;28;20136;-80
2023/05/05 02:29:28;;;;;;;11.85;8.90;;;;;;;14.19;78.17;100712.25;5080138;28;20111;-80
2023/05/05 02:32:03;;;;;;;13.10;8.85;;;;;;;14.22;78.68;100717.16;5075977;28;20131;-82
2023/05/05 02:34:35;;;;;;;11.55;9.00;;;;;;;14.18;78.57;100721.97;5081091;28;20053;-80
2023/05/05 02:37:07;;;;;;;12.27;9.25;;;;;;;14.13;78.67;100711.19;5068199;28;20049;-80
2023/05/05 02:39:38;;;;;;;12.23;9.90;;;;;;;14.13;79.13;100728.78;5081764;28;21752;-80
2023/05/05 02:42:06;;;;;;;13.13;9.73;;;;;;;14.16;79.31;100737.13;5067761;28;20139;-80
2023/05/05 02:44:33;;;;;;;13.80;9.57;;;;;;;14.09;79.28;100730.94;5081073;28;20044;-82
2023/05/05 02:47:02;;;;;;;13.30;10.02;;;;;;;14.08;79.68;100731.94;5072157;28;20136;-80
2023/05/05 02:49:29;;;;;;;15.48;10.27;;;;;;;14.09;79.68;100725.69;5064999;28;20064;-81
2023/05/05 02:51:56;;;;;;;16.27;9.52;;;;;;;14.13;80.17;100737.50;5082454;28;20108;-81
2023/05/05 02:54:26;;;;;;;13.60;9.45;;;;;;;14.15;80.25;100737.31;5080763;28;20048;-81
2023/05/05 02:56:54;;;;;;;20.83;11.02;;;;;;;14.19;80.27;100731.50;5086735;28;20051;-82
2023/05/05 02:59:30;;;;;;;20.48;10.00;;;;;;;14.17;80.24;100744.03;5094524;28;20151;-83
2023/05/05 03:02:09;;;;;;;16.52;10.63;;;;;;;14.18;80.50;100744.81;5100909;28;20051;-83
2023/05/05 03:04:40;;;;;;;15.02;10.23;;;;;;;14.21;80.30;100740.03;5100041;28;20116;-81
2023/05/05 03:07:13;;;;;;;13.32;10.50;;;;;;;14.15;80.36;100746.03;5098184;28;20058;-82
2023/05/05 03:09:45;;;;;;;13.65;10.73;;;;;;;14.12;80.35;100743.75;5092579;28;20060;-79
2023/05/05 03:12:16;;;;;;;13.52;10.70;;;;;;;14.02;80.76;100739.72;5100063;28;20071;-81
2023/05/05 03:14:45;;;;;;;16.67;11.40;;;;;;;13.93;80.98;100733.69;5092643;28;20048;-83
2023/05/05 03:17:13;;;;;;;14.25;10.55;;;;;;;13.91;81.11;100743.56;5092464;28;20115;-81
2023/05/05 03:19:42;;;;;;;13.15;10.55;;;;;;;13.91;81.17;100733.03;5094445;28;20124;-81
2023/05/05 03:22:09;;;;;;;14.85;11.30;;;;;;;13.84;81.41;100742.63;5099920;28;20048;-83
2023/05/05 03:24:35;;;;;;;14.40;11.40;;;;;;;13.77;82.18;100747.75;5099936;28;20058;-82
2023/05/05 03:27:06;;;;;;;15.23;11.55;;;;;;;13.75;82.32;100760.25;5102568;28;20059;-82
2023/05/05 03:29:33;;;;;;;15.70;11.63;;;;;;;13.66;82.60;100747.34;5098747;28;20503;-83
2023/05/05 03:32:00;;;;;;;16.48;11.43;;;;;;;13.61;82.93;100747.88;5089841;28;20040;-81
2023/05/05 03:34:27;;;;;;;14.82;10.98;;;;;;;13.58;83.28;100742.94;5097442;28;20056;-81
2023/05/05 03:36:53;;;;;;;17.02;11.13;;;;;;;13.58;83.32;100742.94;5097010;28;20112;-81
2023/05/05 03:39:20;;;;;;;16.02;11.35;;;;;;;13.60;83.65;100747.03;5100153;28;20075;-82
2023/05/05 03:41:47;;;;;;;13.52;10.85;;;;;;;13.63;83.77;100756.41;5099804;28;20048;-81
2023/05/05 03:44:15;;;;;;;13.07;11.20;;;;;;;13.57;83.84;100752.66;5086720;28;20079;-81
2023/05/05 03:46:41;;;;;;;15.93;10.93;;;;;;;13.54;84.31;100752.16;5090202;28;20120;-82
2023/05/05 03:49:08;;;;;;;16.90;11.68;;;;;;;13.52;84.48;100741.81;5097833;28;20059;-82
2023/05/05 03:51:35;;;;;;;17.83;11.77;;;;;;;13.47;85.20;100751.22;5096408;28;20151;-82
2023/05/05 03:54:02;;;;;;;17.40;11.55;;;;;;;13.46;85.83;100745.13;5086880;28;20060;-81
2023/05/05 03:56:28;;;;;;;18.73;11.57;;;;;;;13.50;86.26;100746.44;5094516;28;20120;-82
2023/05/05 03:58:55;;;;;;;17.02;12.80;;;;;;;13.47;86.50;100752.03;5097863;28;20139;-82
2023/05/05 04:01:23;;;;;;;14.55;11.88;;;;;;;13.43;87.16;100750.75;5096395;28;20434;-82
2023/05/05 04:03:49;;;;;;;18.67;12.48;;;;;;;13.41;87.56;100755.34;5084589;28;20491;-83
2023/05/05 04:06:16;;;;;;;18.50;13.00;;;;;;;13.41;87.78;100746.63;5093605;28;20135;-82
2023/05/05 04:08:42;;;;;;;20.70;13.20;;;;;;;13.48;88.21;100763.38;5100326;28;20135;-82
2023/05/05 04:11:09;;;;;;;14.80;11.95;;;;;;;13.51;88.52;100763.03;5094422;28;20060;-82
2023/05/05 04:13:36;;;;;;;17.00;12.25;;;;;;;13.62;88.87;100765.28;5100227;28;20127;-81
2023/05/05 04:16:03;;;;;;;14.75;13.00;;;;;;;13.72;89.13;100771.13;5095311;28;20072;-82
2023/05/05 04:18:31;;;;;;;15.90;12.13;;;;;;;13.82;89.37;100771.72;5100179;28;20115;-82
2023/05/05 04:20:57;;;;;;;18.85;11.90;;;;;;;13.92;89.77;100782.84;5097645;28;20146;-81
2023/05/05 04:23:27;;;;;;;14.65;12.57;;;;;;;14.04;90.04;100783.28;5092051;28;20078;-83
2023/05/05 04:25:57;;;;;;;18.48;13.50;;;;;;;14.18;90.32;100779.03;5100836;28;22485;-82
2023/05/05 04:28:44;;;;;;;14.13;12.25;;;;;;;14.35;90.15;100785.00;5097257;28;20116;-83
2023/05/05 04:31:14;;;;;;;17.00;12.32;;;;;;;14.58;89.89;100777.94;5085975;28;20052;-81
2023/05/05 04:33:46;;;;;;;17.25;13.07;;;;;;;14.77;89.33;100782.69;5089651;28;20300;-82
2023/05/05 04:36:17;;;;;;;17.05;13.13;;;;;;;14.83;88.98;100781.16;5100014;28;20100;-81
2023/05/05 04:38:44;;;;;;;16.50;12.20;;;;;;;14.91;88.51;100781.88;5088072;28;20053;-82
2023/05/05 04:41:12;;;;;;;18.67;12.73;;;;;;;14.99;88.33;100801.25;5093354;28;20052;-81
2023/05/05 04:43:43;;;;;;;17.77;13.18;;;;;;;14.78;88.71;100789.59;5095347;28;20048;-80
2023/05/05 04:46:10;;;;;;;16.08;12.77;;;;;;;14.74;89.48;100790.94;5094233;28;20052;-80
2023/05/05 04:48:38;;;;;;;17.10;13.00;;;;;;;14.68;89.98;100786.38;5099481;28;20048;-82
2023/05/05 04:51:07;;;;;;;20.50;13.02;;;;;;;14.72;90.74;100803.47;5100834;28;20052;-82
2023/05/05 04:53:34;;;;;;;17.48;13.48;;;;;;;14.82;90.60;100801.41;5099436;28;20518;-81
2023/05/05 04:56:01;;;;;;;16.65;12.77;;;;;;;14.89;90.26;100791.78;5085818;28;20048;-81
2023/05/05 05:01:14;;;;;;;21.88;13.48;;;;;;;15.17;90.02;100809.59;5086049;28;20048;-83
2023/05/05 05:03:41;;;;;;;25.40;13.45;;;;;;;15.18;90.03;100796.25;5092993;28;20143;-82
2023/05/05 05:06:09;;;;;;;20.15;12.88;;;;;;;15.22;89.99;100794.88;5091364;28;20052;-81
2023/05/05 05:08:36;;;;;;;16.67;12.68;;;;;;;15.36;89.66;100801.16;5095715;28;20566;-81
2023/05/05 05:11:03;;;;;;;18.83;13.57;;;;;;;15.51;89.49;100806.44;5099746;28;20040;-83
2023/05/05 05:13:29;;;;;;;20.83;13.77;;;;;;;15.59;89.30;100814.28;5098183;28;20048;-82
2023/05/05 05:15:56;;;;;;;18.45;13.50;;;;;;;15.76;89.09;100812.22;5093671;28;20076;-82
2023/05/05 05:18:23;;;;;;;20.27;13.88;;;;;;;15.93;88.60;100811.00;5093792;28;20108;-82
2023/05/05 05:20:49;;;;;;;19.58;13.40;;;;;;;16.10;88.27;100819.50;5096829;28;20059;-85
2023/05/05 05:23:17;;;;;;;19.63;13.75;;;;;;;16.40;87.75;100818.38;5092393;28;20082;-81
2023/05/05 05:25:44;;;;;;;19.73;13.98;;;;;;;16.60;86.55;100814.06;5096415;28;20048;-83
2023/05/05 05:28:11;;;;;;;20.25;14.15;;;;;;;17.18;85.40;100817.38;5088807;28;20055;-81
2023/05/05 05:30:38;;;;;;;17.17;13.38;;;;;;;17.89;83.21;100825.06;5090664;28;20079;-82
2023/05/05 05:33:04;;;;;;;17.33;13.05;;;;;;;18.14;80.96;100820.81;5090032;28;20068;-83
2023/05/05 05:35:31;;;;;;;18.27;13.02;;;;;;;17.82;80.95;100818.91;5094134;28;20055;-82
2023/05/05 05:37:57;;;;;;;17.42;13.35;;;;;;;18.21;80.68;100824.31;5086686;28;20040;-83
2023/05/05 05:40:26;;;;;;;16.20;12.98;;;;;;;18.57;79.65;100825.75;5101389;28;20072;-82
2023/05/05 05:42:52;;;;;;;20.13;14.63;;;;;;;18.80;78.14;100823.56;5100581;28;20045;-82
2023/05/05 05:45:19;;;;;;;23.77;13.75;;;;;;;18.69;77.83;100816.22;5094313;28;20075;-82
2023/05/05 05:47:46;;;;;;;23.52;13.23;;;;;;;18.65;78.12;100820.28;5097940;28;20063;-82
2023/05/05 05:50:13;;;;;;;25.67;13.35;;;;;;;18.67;78.16;100825.38;5101037;28;20136;-81
2023/05/05 05:52:39;;;;;;;24.27;14.43;;;;;;;18.86;77.98;100820.09;5097173;28;20484;-82
2023/05/05 05:55:08;;;;;;;19.35;14.05;;;;;;;19.08;77.13;100819.84;5093866;28;20058;-82
2023/05/05 05:57:36;;;;;;;18.95;14.15;;;;;;;18.83;77.63;100827.63;5099219;28;20094;-82
2023/05/05 06:00:03;;;;;;;23.13;13.95;;;;;;;18.83;78.09;100833.75;5094196;28;20079;-82
2023/05/05 06:02:31;;;;;;;19.90;14.07;;;;;;;18.85;78.12;100833.53;5095490;28;20090;-83
2023/05/05 06:04:58;;;;;;;19.15;13.73;;;;;;;19.00;77.74;100830.66;5097059;28;20062;-83
2023/05/05 06:07:27;;;;;;;16.15;14.00;;;;;;;19.12;77.75;100843.09;5093501;28;20082;-83
2023/05/05 06:09:55;;;;;;;24.15;14.40;;;;;;;19.05;77.86;100846.78;5091347;28;20044;-83
2023/05/05 06:12:22;;;;;;;22.50;15.10;;;;;;;19.12;77.90;100848.41;5097629;28;20055;-82
2023/05/05 06:14:50;;;;;;;17.27;14.30;;;;;;;19.41;77.66;100841.78;5099973;28;20139;-80
2023/05/05 06:17:16;;;;;;;20.33;13.88;;;;;;;19.75;77.01;100851.31;5096931;28;20090;-82
2023/05/05 06:19:43;;;;;;;17.38;15.02;;;;;;;20.03;75.83;100847.47;5097733;28;20111;-83
2023/05/05 06:22:10;;;;;;;21.95;13.63;;;;;;;20.28;74.99;100847.56;5102817;28;20067;-83
2023/05/05 06:24:36;;;;;;;19.10;14.27;;;;;;;20.80;73.58;100843.69;5100476;28;20144;-83
2023/05/05 06:27:04;;;;;;;19.83;14.60;;;;;;;20.92;73.00;100854.44;5099054;28;20464;-84
2023/05/05 06:29:31;;;;;;;16.65;13.52;;;;;;;21.98;71.19;100846.91;5102578;28;20048;-84
2023/05/05 06:31:59;;;;;;;15.90;13.18;;;;;;;22.88;67.55;100835.34;5092906;28;20070;-82
2023/05/05 06:34:26;;;;;;;19.55;13.82;;;;;;;22.43;68.00;100833.19;5101897;28;20115;-82
2023/05/05 06:36:53;;;;;;;24.23;13.40;;;;;;;23.10;67.63;100836.38;5092810;28;20048;-82
2023/05/05 06:39:19;;;;;;;15.00;13.45;;;;;;;23.11;66.23;100822.81;5099299;28;20122;-83
2023/05/05 06:41:46;;;;;;;16.70;14.88;;;;;;;23.00;65.95;100815.63;5094483;28;20044;-83
2023/05/05 06:44:12;;;;;;;15.57;13.93;;;;;;;22.38;66.94;100835.72;5096073;28;20114;-82
2023/05/05 06:46:39;;;;;;;19.35;14.27;;;;;;;22.60;66.87;100841.31;5096300;28;20048;-83
2023/05/05 06:49:07;;;;;;;19.42;14.40;;;;;;;22.94;66.69;100837.09;5102972;28;20075;-83
2023/05/05 06:51:34;;;;;;;20.65;14.55;;;;;;;23.43;64.76;100825.06;5099870;28;20551;-83
2023/05/05 06:54:00;;;;;;;19.48;15.10;;;;;;;23.56;64.44;100840.88;5096546;28;20513;-83
2023/05/05 06:56:28;;;;;;;20.75;15.50;;;;;;;23.11;65.50;100852.16;5092888;28;20131;-82
2023/05/05 06:58:54;;;;;;;18.60;15.60;;;;;;;23.91;63.36;100845.25;5083303;28;20076;-84
2023/05/05 07:01:21;;;;;;;19.10;15.23;;;;;;;23.41;63.68;100851.19;5091863;28;20135;-85
2023/05/05 07:03:48;;;;;;;20.67;17.05;;;;;;;22.37;66.08;100858.91;5098117;28;20153;-83
2023/05/05 07:06:16;;;;;;;20.77;15.93;;;;;;;22.50;66.14;100858.69;5102340;28;20043;-84
2023/05/05 07:11:31;;;;;;;18.58;16.20;;;;;;;21.60;67.86;100846.41;5088002;28;20048;-85
2023/05/05 07:14:02;;;;;;;18.73;15.85;;;;;;;21.44;68.68;100864.59;5091169;28;20093;-82
2023/05/05 07:16:40;;;;;;;18.15;15.95;;;;;;;21.36;69.91;100848.09;5097577;28;20152;-84
2023/05/05 07:19:30;;;;;;;22.30;16.73;;;;;;;21.33;69.86;100869.81;5093964;28;20060;-83
2023/05/05 07:22:00;;;;;;;21.02;16.08;;;;;;;21.68;69.52;100872.72;5087914;28;20045;-82
2023/05/05 07:24:40;;;;;;;19.27;15.65;;;;;;;21.44;70.21;100869.91;5090117;28;20036;-84
2023/05/05 07:27:16;;;;;;;20.55;16.08;;;;;;;22.10;69.11;100879.78;5089823;28;20059;-82
2023/05/05 07:29:42;;;;;;;21.38;16.85;;;;;;;22.43;67.44;100881.16;5092736;28;20040;-83
2023/05/05 07:32:09;;;;;;;16.10;14.50;;;;;;;22.59;68.01;100888.53;5086292;28;20076;-81
2023/05/05 07:34:36;;;;;;;26.52;17.58;;;;;;;23.21;66.35;100886.25;5096187;28;20079;-82
2023/05/05 07:37:05;;;;;;;23.27;16.38;;;;;;;22.56;66.13;100872.16;5099867;28;20047;-82
2023/05/05 07:39:32;;;;;;;19.48;16.52;;;;;;;22.36;65.73;100870.59;5095899;28;20045;-81
2023/05/05 07:41:58;;;;;;;19.55;15.35;;;;;;;22.31;65.50;100872.31;5101472;28;20111;-81
2023/05/05 07:44:25;;;;;;;17.05;14.60;;;;;;;22.70;66.25;100889.56;5096056;28;20075;-84
2023/05/05 07:46:52;;;;;;;17.40;14.70;;;;;;;22.62;65.56;100872.06;5103262;28;20048;-81
2023/05/05 07:49:18;;;;;;;19.80;14.40;;;;;;;22.43;64.39;100875.84;5096276;28;20212;-82
2023/05/05 07:51:45;;;;;;;17.73;14.27;;;;;;;22.54;64.47;100872.38;5093729;28;20102;-83
2023/05/05 07:54:13;;;;;;;19.73;16.15;;;;;;;22.58;65.41;100880.75;5091453;28;20150;-81
2023/05/05 07:56:40;;;;;;;19.58;15.77;;;;;;;23.03;64.84;100879.19;5091773;28;20136;-81
2023/05/05 07:59:07;;;;;;;19.27;17.13;;;;;;;23.17;63.26;100869.09;5100405;28;20048;-84
2023/05/05 08:01:33;;;;;;;19.30;17.25;;;;;;;22.58;64.02;100870.91;5090123;28;20044;-82
2023/05/05 08:04:00;;;;;;;21.15;18.88;;;;;;;22.22;65.33;100876.34;5092276;28;20075;-82
2023/05/05 08:06:27;;;;;;;20.35;16.88;;;;;;;22.23;65.84;100876.13;5096937;28;20083;-82
2023/05/05 08:08:54;;;;;;;20.90;18.50;;;;;;;22.31;65.54;100873.13;5088662;28;20051;-83
2023/05/05 08:11:22;;;;;;;24.17;19.38;;;;;;;21.70;67.23;100875.97;5092086;28;20048;-83
2023/05/05 08:13:48;;;;;;;21.08;18.88;;;;;;;21.86;67.68;100878.03;5093836;28;20037;-79
2023/05/05 08:16:15;;;;;;;20.70;18.42;;;;;;;22.14;67.47;100882.81;5090392;28;20103;-81
2023/05/05 08:18:42;;;;;;;24.73;18.63;;;;;;;22.24;66.07;100882.25;5094776;28;20088;-83
2023/05/05 08:21:09;;;;;;;22.58;19.20;;;;;;;21.61;67.33;100866.66;5088984;28;20083;-80
2023/05/05 08:23:37;;;;;;;24.20;19.65;;;;;;;21.71;66.85;100872.28;5093569;28;20040;-79
2023/05/05 08:26:06;;;;;;;22.92;18.38;;;;;;;22.01;67.03;100878.47;5089387;28;20055;-82
2023/05/05 08:28:35;;;;;;;22.73;18.85;;;;;;;21.95;66.47;100875.88;5089393;28;20500;-82
2023/05/05 08:31:01;;;;;;;21.20;18.20;;;;;;;22.50;66.21;100879.22;5088725;28;20051;-81
2023/05/05 08:33:28;;;;;;;26.95;18.58;;;;;;;23.08;64.80;100887.31;5088300;28;20114;-80
2023/05/05 08:35:55;;;;;;;25.15;19.45;;;;;;;23.34;63.83;100880.69;5089178;28;20080;-83
2023/05/05 08:38:21;;;;;;;25.20;20.48;;;;;;;23.45;62.66;100866.50;5091523;28;20461;-82
2023/05/05 08:40:48;;;;;;;20.80;18.63;;;;;;;23.96;62.00;100869.41;5096341;28;20171;-81
2023/05/05 08:43:19;;;;;;;25.00;20.58;;;;;;;24.28;60.27;100854.53;5091174;28;20398;-84
2023/05/05 08:45:47;;;;;;;21.45;18.50;;;;;;;24.85;60.05;100869.63;5090152;28;20056;-81
2023/05/05 08:48:17;;;;;;;19.90;17.80;;;;;;;23.91;60.70;100853.28;5096975;28;20131;-81
2023/05/05 08:50:48;;;;;;;19.08;17.13;;;;;;;23.60;62.34;100871.41;5096674;28;20059;-78
2023/05/05 08:53:17;;;;;;;21.48;19.08;;;;;;;23.63;62.23;100884.25;5092552;28;20123;-81
2023/05/05 08:55:50;;;;;;;20.38;17.90;;;;;;;23.57;62.41;100887.09;5080293;28;20075;-81
2023/05/05 08:58:17;;;;;;;20.75;17.88;;;;;;;24.09;61.35;100872.63;5088602;28;20078;-80
2023/05/05 09:00:45;;;;;;;17.80;15.40;;;;;;;23.89;61.14;100868.75;5098276;28;20048;-81
2023/05/05 09:03:13;;;;;;;20.30;15.02;;;;;;;22.44;64.07;100888.94;5097792;28;20063;-80
2023/05/05 09:05:41;;;;;;;19.17;14.85;;;;;;;22.41;65.39;100892.06;5087307;28;20135;-80
2023/05/05 09:08:10;;;;;;;18.55;15.63;;;;;;;22.43;65.31;100881.16;5094324;28;20412;-80
2023/05/05 09:10:40;;;;;;;19.10;15.00;;;;;;;22.53;65.38;100889.44;5096109;28;20104;-79
2023/05/05 09:13:07;;;;;;;18.80;14.23;;;;;;;22.57;66.69;100901.28;5078825;28;20547;-79
2023/05/05 09:15:33;;;;;;;16.25;14.02;;;;;;;22.65;nan;100898.28;5086229;28;20072;-80
2023/05/05 09:18:02;;;;;;;19.23;13.73;;;;;;;23.66;63.80;100885.66;5082446;28;20048;-81
2023/05/05 09:20:34;;;;;;;17.90;16.02;;;;;;;24.42;60.61;100873.75;5092999;28;20040;-79
2023/05/05 09:23:08;;;;;;;16.08;14.30;;;;;;;24.70;59.38;100871.00;5084146;28;20060;-82
2023/05/05 09:25:34;;;;;;;19.00;13.80;;;;;;;25.15;59.26;100875.44;5094516;28;20697;-81
2023/05/05 09:28:08;;;;;;;18.35;14.35;;;;;;;24.95;58.92;100870.59;5092143;28;20466;-82
2023/05/05 09:30:35;;;;;;;18.38;14.40;;;;;;;24.63;58.19;100859.66;5091361;28;20112;-81
2023/05/05 09:33:02;;;;;;;16.90;15.07;;;;;;;24.51;60.09;100868.81;5090082;28;20048;-81
2023/05/05 09:35:29;;;;;;;16.17;13.77;;;;;;;24.39;59.92;100860.88;5094273;28;20079;-80
2023/05/05 09:38:10;;;;;;;18.95;16.33;;;;;;;23.94;60.73;100864.31;5096874;28;20040;-80
2023/05/05 09:40:46;;;;;;;19.00;15.55;;;;;;;23.31;62.45;100878.47;5092447;28;20078;-80
2023/05/05 09:43:12;;;;;;;21.30;16.42;;;;;;;22.37;65.09;100868.75;5093716;28;20075;-78
2023/05/05 09:45:39;;;;;;;20.02;17.88;;;;;;;21.91;65.75;100867.50;5090080;28;20041;-80
2023/05/05 09:48:06;;;;;;;22.23;18.85;;;;;;;21.79;66.21;100878.09;5085048;28;20542;-80
2023/05/05 09:50:43;;;;;;;19.95;17.95;;;;;;;22.05;66.56;100876.19;5086409;28;20052;-79
2023/05/05 09:53:11;;;;;;;18.58;16.40;;;;;;;22.26;65.81;100873.00;5084129;28;20052;-80
2023/05/05 09:55:38;;;;;;;19.38;16.30;;;;;;;21.92;66.66;100865.66;5091026;28;20056;-79
2023/05/05 09:58:18;;;;;;;17.13;13.80;;;;;;;21.94;66.90;100860.91;5085184;28;20053;-82
2023/05/05 10:00:46;;;;;;;17.52;15.07;;;;;;;22.01;65.63;100854.50;5081178;28;20048;-81
2023/05/05 10:03:13;;;;;;;17.40;14.30;;;;;;;22.42;64.94;100858.22;5088958;28;20048;-81
2023/05/05 10:05:50;;;;;;;16.98;15.15;;;;;;;22.47;65.42;100859.16;5083969;28;20071;-81
2023/05/05 10:08:20;;;;;;;17.40;15.07;;;;;;;22.47;65.15;100858.34;5089775;28;20116;-80
2023/05/05 10:10:50;;;;;;;15.40;13.70;;;;;;;22.49;65.36;100858.94;5086619;28;20067;-81
2023/05/05 10:13:19;;;;;;;20.27;15.32;;;;;;;22.74;64.58;100843.53;5100464;28;20059;-81
2023/05/05 10:15:49;;;;;;;18.88;15.35;;;;;;;22.67;64.07;100826.84;5097129;28;21276;-79
2023/05/05 10:18:22;;;;;;;16.50;14.90;;;;;;;22.42;64.50;100829.69;5096938;28;20055;-81
2023/05/05 10:20:55;;;;;;;16.40;14.70;;;;;;;22.75;64.28;100839.81;5100161;28;20050;-80
2023/05/05 10:23:27;;;;;;;19.90;15.27;;;;;;;22.70;64.85;100838.88;5087698;28;20057;-80
2023/05/05 10:26:01;;;;;;;16.73;14.18;;;;;;;23.31;63.83;100840.28;5092457;28;20048;-81
2023/05/05 10:28:32;;;;;;;17.63;13.52;;;;;;;23.19;63.51;100826.94;5088996;28;20116;-79
2023/05/05 10:31:02;;;;;;;15.20;13.63;;;;;;;22.93;63.76;100824.78;5092241;28;20048;-79
2023/05/05 10:33:35;;;;;;;18.27;13.48;;;;;;;22.92;63.52;100823.16;5098845;28;20055;-79
2023/05/05 10:36:06;;;;;;;17.42;13.85;;;;;;;23.16;62.92;100830.91;5084971;28;20135;-79
2023/05/05 10:38:35;;;;;;;16.13;13.40;;;;;;;22.93;63.44;100827.44;5089787;28;20051;-81
2023/05/05 10:41:03;;;;;;;15.13;13.55;;;;;;;22.41;64.13;100830.75;5085661;28;20486;-81
2023/05/05 10:43:31;;;;;;;15.82;13.27;;;;;;;22.43;64.37;100835.84;5086603;28;20048;-80
2023/05/05 10:45:58;;;;;;;15.70;13.77;;;;;;;22.20;65.19;100846.47;5084766;28;20045;-79
2023/05/05 10:48:33;;;;;;;14.15;12.65;;;;;;;22.18;66.17;100836.03;5086283;28;20052;-79
2023/05/05 10:51:08;;;;;;;15.07;12.50;;;;;;;21.91;66.56;100832.06;5084075;28;20426;-81
2023/05/05 10:53:44;;;;;;;17.27;10.63;;;;;;;21.31;68.99;100838.09;5089179;28;20482;-79
2023/05/05 10:56:24;;;;;;;14.55;10.75;;;;;;;20.85;71.58;100836.69;5088978;28;20064;-82
2023/05/05 10:58:50;;;;;;;14.10;12.07;;;;;;;20.55;74.54;100854.34;5095612;28;20518;-79
2023/05/05 11:01:29;;;;;;;14.63;11.63;;;;;;;20.15;76.91;100869.69;5097378;28;20596;-80
2023/05/05 11:04:18;;;;;;;8.80;7.50;;;;;;;19.38;75.33;100868.72;5084770;28;20424;-79
2023/05/05 11:07:21;;;;;;;11.30;8.93;;;;;;;19.02;78.53;100853.28;5073814;28;20135;-80
2023/05/05 11:10:00;;;;;;;;;;;;;;;18.88;82.74;100868.44;5082373;28;20568;-79
2023/05/05 11:12:26;;;;;;;12.38;9.48;;;;;;;18.40;85.23;100861.63;5088491;28;20422;-79
2023/05/05 11:15:32;;;;;;;13.00;9.05;;;;;;;18.14;87.33;100855.25;5084087;28;20104;-79
2023/05/05 11:17:59;;;;;;;9.05;6.18;;;;;;;17.44;87.64;100848.44;5089550;28;20048;-80
2023/05/05 11:21:03;;;;;;;8.20;6.38;;;;;;;17.17;89.94;100862.50;5080950;28;20049;-80
2023/05/05 11:23:30;;;;;;;8.38;4.90;;;;;;;16.95;88.49;100858.31;5090902;28;20072;-78
2023/05/05 11:25:58;;;;;;;10.77;5.63;;;;;;;16.99;90.41;100864.84;5081058;28;20047;-77
2023/05/05 11:28:28;;;;;;;7.07;4.90;;;;;;;16.93;91.33;100882.28;5078918;28;20110;-78